Ashton, Kansas
Current Conditions -  °F | °C
As of 7:54 AM on Wednesday 26 Nov 2014 (Local Time) from KWLD Reporting Station
Scattered Clouds Scattered Clouds  
Wind Chill: 36°   Ceiling: Unl
Heat Index: 42°   Visibility: 10mi
Dew Point: 32°   Wind: 10mph
Humidity: 67%   Direction: 330°NNW
Pressure: 30.07"   Gusts: NA
Location:  37.0641°N, 97.2025°W
Report Text: KWLD 261354Z AUTO 33009KT 10SM SCT120 06/00 A3007 RMK AO2 SLP188 T00560000
Loading
Personal Weather Stations






























Interactive Weather Map New forecast layout! Learn more

10-Day Weather Forecast

Advertisements
Track Severe Weather on mobile